< < Back
Terminal Aerodrome Forecast


Current Version              Previous Versions:   1  2  3  4  5  6  7  8  9  

Terminal Aerodrome Forecast

036
FTUS42 KTAE 310520
TAFDHN
TAF
KDHN 310520Z 3106/0106 VRB03KT P6SM SCT250
     FM311800 28005KT P6SM VCTS SCT060CB BKN250
     FM010000 26005KT P6SM SCT250=

Latest METAR

156
SAUS70 KWBC 311400 RRL
MTRDHN
METAR KDHN 311353Z 33005KT 10SM CLR 29/19 A3000 RMK AO2 SLP151
T02890189


USA.gov is the U.S. government's official web portal to all federal, state and local government web resources and services.